sensor_id;sensor_type;location;lat;lon;timestamp;pressure;altitude;pressure_sealevel;temperature;humidity
19600;BME280;9947;57.722;12.012;2022-10-29T00:01:07;100606.69;;;13.31;100.00
19600;BME280;9947;57.722;12.012;2022-10-29T00:03:35;100603.50;;;13.25;100.00
19600;BME280;9947;57.722;12.012;2022-10-29T00:06:04;100616.22;;;13.25;100.00
19600;BME280;9947;57.722;12.012;2022-10-29T00:08:35;100612.94;;;13.21;100.00
19600;BME280;9947;57.722;12.012;2022-10-29T00:11:08;100613.22;;;13.18;100.00
19600;BME280;9947;57.722;12.012;2022-10-29T00:13:35;100615.44;;;13.13;100.00
19600;BME280;9947;57.722;12.012;2022-10-29T00:16:06;100618.72;;;13.07;100.00
19600;BME280;9947;57.722;12.012;2022-10-29T00:18:33;100611.72;;;13.05;100.00
19600;BME280;9947;57.722;12.012;2022-10-29T00:21:01;100620.50;;;12.97;100.00
19600;BME280;9947;57.722;12.012;2022-10-29T00:23:28;100631.91;;;12.91;100.00
19600;BME280;9947;57.722;12.012;2022-10-29T00:25:57;100637.34;;;12.91;100.00
19600;BME280;9947;57.722;12.012;2022-10-29T00:28:24;100642.59;;;12.83;100.00
19600;BME280;9947;57.722;12.012;2022-10-29T00:30:51;100636.94;;;12.75;100.00
19600;BME280;9947;57.722;12.012;2022-10-29T00:33:18;100642.78;;;12.70;100.00
19600;BME280;9947;57.722;12.012;2022-10-29T00:35:54;100640.63;;;12.64;100.00
19600;BME280;9947;57.722;12.012;2022-10-29T00:38:21;100631.22;;;12.47;100.00
19600;BME280;9947;57.722;12.012;2022-10-29T00:40:48;100652.72;;;12.39;100.00
19600;BME280;9947;57.722;12.012;2022-10-29T00:43:18;100660.84;;;12.39;100.00
19600;BME280;9947;57.722;12.012;2022-10-29T00:45:49;100661.84;;;12.38;100.00
19600;BME280;9947;57.722;12.012;2022-10-29T00:48:18;100656.69;;;12.35;100.00
19600;BME280;9947;57.722;12.012;2022-10-29T00:50:46;100666.25;;;12.39;100.00
19600;BME280;9947;57.722;12.012;2022-10-29T00:53:15;100668.13;;;12.39;100.00
19600;BME280;9947;57.722;12.012;2022-10-29T00:55:45;100662.63;;;12.29;100.00
19600;BME280;9947;57.722;12.012;2022-10-29T00:58:12;100652.00;;;12.05;100.00
19600;BME280;9947;57.722;12.012;2022-10-29T01:00:41;100691.34;;;11.77;97.68
19600;BME280;9947;57.722;12.012;2022-10-29T01:03:09;100686.91;;;11.65;95.41
19600;BME280;9947;57.722;12.012;2022-10-29T01:05:36;100690.50;;;11.54;93.12
19600;BME280;9947;57.722;12.012;2022-10-29T01:08:04;100713.28;;;11.52;92.18
19600;BME280;9947;57.722;12.012;2022-10-29T01:10:40;100694.47;;;11.50;91.22
19600;BME280;9947;57.722;12.012;2022-10-29T01:13:27;100691.88;;;11.49;90.31
19600;BME280;9947;57.722;12.012;2022-10-29T01:16:04;100708.47;;;11.55;89.74
19600;BME280;9947;57.722;12.012;2022-10-29T01:18:39;100702.34;;;11.53;89.21
19600;BME280;9947;57.722;12.012;2022-10-29T01:21:36;100704.06;;;11.54;89.05
19600;BME280;9947;57.722;12.012;2022-10-29T01:27:26;100688.41;;;11.58;89.04
19600;BME280;9947;57.722;12.012;2022-10-29T01:30:09;100683.72;;;11.60;89.24
19600;BME280;9947;57.722;12.012;2022-10-29T01:32:49;100713.50;;;11.60;88.92
19600;BME280;9947;57.722;12.012;2022-10-29T01:35:22;100707.50;;;11.56;89.13
19600;BME280;9947;57.722;12.012;2022-10-29T01:37:59;100695.56;;;11.59;89.26
19600;BME280;9947;57.722;12.012;2022-10-29T01:40:33;100706.88;;;11.53;89.43
19600;BME280;9947;57.722;12.012;2022-10-29T01:43:05;100717.47;;;11.56;89.15
19600;BME280;9947;57.722;12.012;2022-10-29T01:45:36;100697.16;;;11.50;89.00
19600;BME280;9947;57.722;12.012;2022-10-29T01:48:09;100699.00;;;11.50;89.00
19600;BME280;9947;57.722;12.012;2022-10-29T01:50:39;100710.97;;;11.47;89.16
19600;BME280;9947;57.722;12.012;2022-10-29T01:53:08;100721.41;;;11.52;88.97
19600;BME280;9947;57.722;12.012;2022-10-29T01:55:35;100718.69;;;11.52;89.02
19600;BME280;9947;57.722;12.012;2022-10-29T01:58:04;100721.66;;;11.49;89.06
19600;BME280;9947;57.722;12.012;2022-10-29T02:00:42;100722.53;;;11.49;88.96
19600;BME280;9947;57.722;12.012;2022-10-29T02:03:23;100735.19;;;11.49;89.47
19600;BME280;9947;57.722;12.012;2022-10-29T02:06:03;100736.91;;;11.50;89.57
19600;BME280;9947;57.722;12.012;2022-10-29T02:08:40;100721.13;;;11.43;88.96
19600;BME280;9947;57.722;12.012;2022-10-29T02:11:14;100711.81;;;11.36;88.90
19600;BME280;9947;57.722;12.012;2022-10-29T02:13:49;100715.63;;;11.34;89.02
19600;BME280;9947;57.722;12.012;2022-10-29T02:16:19;100719.81;;;11.27;88.89
19600;BME280;9947;57.722;12.012;2022-10-29T02:18:49;100724.59;;;11.23;89.20
19600;BME280;9947;57.722;12.012;2022-10-29T02:21:18;100725.59;;;11.22;89.31
19600;BME280;9947;57.722;12.012;2022-10-29T02:23:45;100723.13;;;11.19;89.61
19600;BME280;9947;57.722;12.012;2022-10-29T02:26:12;100726.19;;;11.15;89.69
19600;BME280;9947;57.722;12.012;2022-10-29T02:28:39;100716.09;;;11.05;89.33
19600;BME280;9947;57.722;12.012;2022-10-29T02:31:09;100735.78;;;11.07;89.32
19600;BME280;9947;57.722;12.012;2022-10-29T02:33:36;100745.97;;;11.04;89.16
19600;BME280;9947;57.722;12.012;2022-10-29T02:36:05;100752.13;;;11.06;89.56
19600;BME280;9947;57.722;12.012;2022-10-29T02:38:32;100743.16;;;11.05;89.32
19600;BME280;9947;57.722;12.012;2022-10-29T02:40:58;100744.88;;;11.06;89.51
19600;BME280;9947;57.722;12.012;2022-10-29T02:43:25;100750.53;;;11.03;89.78
19600;BME280;9947;57.722;12.012;2022-10-29T02:46:10;100757.03;;;11.01;89.95
19600;BME280;9947;57.722;12.012;2022-10-29T02:48:37;100760.72;;;11.00;90.27
19600;BME280;9947;57.722;12.012;2022-10-29T02:51:06;100754.81;;;10.95;90.06
19600;BME280;9947;57.722;12.012;2022-10-29T02:53:32;100754.16;;;10.91;90.40
19600;BME280;9947;57.722;12.012;2022-10-29T02:55:59;100755.28;;;10.89;90.29
19600;BME280;9947;57.722;12.012;2022-10-29T02:58:26;100754.91;;;10.82;90.25
19600;BME280;9947;57.722;12.012;2022-10-29T03:00:53;100747.63;;;10.71;89.88
19600;BME280;9947;57.722;12.012;2022-10-29T03:03:20;100760.53;;;10.68;89.74
19600;BME280;9947;57.722;12.012;2022-10-29T03:05:47;100762.81;;;10.61;89.43
19600;BME280;9947;57.722;12.012;2022-10-29T03:08:15;100755.91;;;10.57;89.83
19600;BME280;9947;57.722;12.012;2022-10-29T03:10:42;100760.84;;;10.63;89.67
19600;BME280;9947;57.722;12.012;2022-10-29T03:13:09;100762.31;;;10.56;89.91
19600;BME280;9947;57.722;12.012;2022-10-29T03:15:36;100761.19;;;10.59;89.55
19600;BME280;9947;57.722;12.012;2022-10-29T03:18:04;100766.59;;;10.59;89.73
19600;BME280;9947;57.722;12.012;2022-10-29T03:20:31;100772.38;;;10.54;89.29
19600;BME280;9947;57.722;12.012;2022-10-29T03:22:57;100776.06;;;10.53;89.43
19600;BME280;9947;57.722;12.012;2022-10-29T03:25:25;100780.09;;;10.47;89.90
19600;BME280;9947;57.722;12.012;2022-10-29T03:27:53;100768.97;;;10.39;89.86
19600;BME280;9947;57.722;12.012;2022-10-29T03:30:20;100773.75;;;10.36;89.48
19600;BME280;9947;57.722;12.012;2022-10-29T03:32:47;100758.88;;;10.30;89.91
19600;BME280;9947;57.722;12.012;2022-10-29T03:35:15;100766.59;;;10.24;89.32
19600;BME280;9947;57.722;12.012;2022-10-29T03:37:41;100762.16;;;10.23;89.57
19600;BME280;9947;57.722;12.012;2022-10-29T03:40:09;100765.19;;;10.18;89.43
19600;BME280;9947;57.722;12.012;2022-10-29T03:42:38;100752.53;;;10.18;89.44
19600;BME280;9947;57.722;12.012;2022-10-29T03:45:05;100762.03;;;10.11;89.39
19600;BME280;9947;57.722;12.012;2022-10-29T03:47:32;100761.19;;;10.11;89.55
19600;BME280;9947;57.722;12.012;2022-10-29T03:49:59;100771.25;;;10.09;89.84
19600;BME280;9947;57.722;12.012;2022-10-29T03:52:26;100768.75;;;10.18;89.35
19600;BME280;9947;57.722;12.012;2022-10-29T03:54:53;100769.28;;;10.24;89.34
19600;BME280;9947;57.722;12.012;2022-10-29T03:57:19;100774.81;;;10.22;89.42
19600;BME280;9947;57.722;12.012;2022-10-29T03:59:47;100777.38;;;10.11;89.44
19600;BME280;9947;57.722;12.012;2022-10-29T04:02:14;100783.53;;;10.13;89.23
19600;BME280;9947;57.722;12.012;2022-10-29T04:04:41;100792.50;;;10.13;89.50
19600;BME280;9947;57.722;12.012;2022-10-29T04:07:08;100795.44;;;10.10;89.37
19600;BME280;9947;57.722;12.012;2022-10-29T04:09:35;100792.00;;;10.08;89.24
19600;BME280;9947;57.722;12.012;2022-10-29T04:12:02;100801.41;;;10.03;89.50
19600;BME280;9947;57.722;12.012;2022-10-29T04:14:29;100784.13;;;10.05;89.71
19600;BME280;9947;57.722;12.012;2022-10-29T04:16:58;100794.56;;;10.10;89.78
19600;BME280;9947;57.722;12.012;2022-10-29T04:19:24;100784.34;;;10.02;90.16
19600;BME280;9947;57.722;12.012;2022-10-29T04:21:51;100797.22;;;9.99;89.61
19600;BME280;9947;57.722;12.012;2022-10-29T04:24:18;100788.53;;;10.06;89.74
19600;BME280;9947;57.722;12.012;2022-10-29T04:26:45;100789.28;;;10.08;90.07
19600;BME280;9947;57.722;12.012;2022-10-29T04:29:11;100793.59;;;10.11;91.01
19600;BME280;9947;57.722;12.012;2022-10-29T04:31:38;100793.47;;;10.12;91.73
19600;BME280;9947;57.722;12.012;2022-10-29T04:34:06;100802.56;;;10.11;92.09
19600;BME280;9947;57.722;12.012;2022-10-29T04:36:33;100806.69;;;10.17;93.56
19600;BME280;9947;57.722;12.012;2022-10-29T04:39:00;100813.06;;;10.16;94.37
19600;BME280;9947;57.722;12.012;2022-10-29T04:41:27;100825.44;;;10.31;97.35
19600;BME280;9947;57.722;12.012;2022-10-29T04:43:54;100816.47;;;10.31;98.29
19600;BME280;9947;57.722;12.012;2022-10-29T04:46:20;100822.84;;;10.30;99.12
19600;BME280;9947;57.722;12.012;2022-10-29T04:48:50;100818.44;;;10.29;99.06
19600;BME280;9947;57.722;12.012;2022-10-29T04:51:20;100830.44;;;10.12;97.10
19600;BME280;9947;57.722;12.012;2022-10-29T04:53:47;100834.34;;;10.08;95.99
19600;BME280;9947;57.722;12.012;2022-10-29T04:56:14;100825.34;;;10.20;95.44
19600;BME280;9947;57.722;12.012;2022-10-29T04:58:40;100835.28;;;10.19;94.91
19600;BME280;9947;57.722;12.012;2022-10-29T05:01:07;100837.91;;;10.21;93.77
19600;BME280;9947;57.722;12.012;2022-10-29T05:03:34;100827.00;;;10.23;93.91
19600;BME280;9947;57.722;12.012;2022-10-29T05:06:02;100827.75;;;10.25;93.87
19600;BME280;9947;57.722;12.012;2022-10-29T05:08:31;100834.75;;;10.27;93.45
19600;BME280;9947;57.722;12.012;2022-10-29T05:11:00;100839.06;;;10.30;92.94
19600;BME280;9947;57.722;12.012;2022-10-29T05:13:29;100840.91;;;10.29;92.62
19600;BME280;9947;57.722;12.012;2022-10-29T05:15:56;100846.53;;;10.26;91.62
19600;BME280;9947;57.722;12.012;2022-10-29T05:18:23;100851.31;;;10.23;90.40
19600;BME280;9947;57.722;12.012;2022-10-29T05:20:52;100849.75;;;10.31;89.80
19600;BME280;9947;57.722;12.012;2022-10-29T05:23:21;100853.06;;;10.47;89.68
19600;BME280;9947;57.722;12.012;2022-10-29T05:25:50;100855.88;;;10.46;89.63
19600;BME280;9947;57.722;12.012;2022-10-29T05:28:18;100851.22;;;10.48;89.19
19600;BME280;9947;57.722;12.012;2022-10-29T05:30:46;100844.25;;;10.57;88.51
19600;BME280;9947;57.722;12.012;2022-10-29T05:33:15;100865.13;;;10.55;88.91
19600;BME280;9947;57.722;12.012;2022-10-29T05:35:43;100853.13;;;10.59;88.56
19600;BME280;9947;57.722;12.012;2022-10-29T05:38:10;100859.38;;;10.59;88.77
19600;BME280;9947;57.722;12.012;2022-10-29T05:40:38;100858.00;;;10.54;89.18
19600;BME280;9947;57.722;12.012;2022-10-29T05:43:08;100862.03;;;10.48;89.10
19600;BME280;9947;57.722;12.012;2022-10-29T05:45:35;100871.25;;;10.45;89.31
19600;BME280;9947;57.722;12.012;2022-10-29T05:48:02;100873.94;;;10.45;89.05
19600;BME280;9947;57.722;12.012;2022-10-29T05:50:31;100875.91;;;10.43;88.65
19600;BME280;9947;57.722;12.012;2022-10-29T05:52:59;100871.59;;;10.41;88.88
19600;BME280;9947;57.722;12.012;2022-10-29T05:55:30;100878.16;;;10.37;89.07
19600;BME280;9947;57.722;12.012;2022-10-29T05:57:59;100883.34;;;10.40;88.58
19600;BME280;9947;57.722;12.012;2022-10-29T06:00:29;100879.47;;;10.44;88.58
19600;BME280;9947;57.722;12.012;2022-10-29T06:02:56;100873.38;;;10.53;88.45
19600;BME280;9947;57.722;12.012;2022-10-29T06:05:23;100879.00;;;10.50;88.54
19600;BME280;9947;57.722;12.012;2022-10-29T06:07:53;100864.41;;;10.40;88.83
19600;BME280;9947;57.722;12.012;2022-10-29T06:10:21;100868.88;;;10.41;88.47
19600;BME280;9947;57.722;12.012;2022-10-29T06:12:48;100867.13;;;10.40;88.53
19600;BME280;9947;57.722;12.012;2022-10-29T06:15:15;100865.75;;;10.34;88.97
19600;BME280;9947;57.722;12.012;2022-10-29T06:17:44;100870.41;;;10.32;88.71
19600;BME280;9947;57.722;12.012;2022-10-29T06:20:12;100877.53;;;10.33;88.84
19600;BME280;9947;57.722;12.012;2022-10-29T06:22:39;100865.97;;;10.31;88.86
19600;BME280;9947;57.722;12.012;2022-10-29T06:25:06;100877.66;;;10.32;88.70
19600;BME280;9947;57.722;12.012;2022-10-29T06:27:34;100884.03;;;10.31;88.88
19600;BME280;9947;57.722;12.012;2022-10-29T06:30:01;100877.41;;;10.35;88.41
19600;BME280;9947;57.722;12.012;2022-10-29T06:32:27;100892.22;;;10.42;88.83
19600;BME280;9947;57.722;12.012;2022-10-29T06:34:56;100890.06;;;10.34;88.58
19600;BME280;9947;57.722;12.012;2022-10-29T06:37:22;100891.28;;;10.30;88.69
19600;BME280;9947;57.722;12.012;2022-10-29T06:39:52;100898.16;;;10.34;88.55
19600;BME280;9947;57.722;12.012;2022-10-29T06:42:18;100903.13;;;10.40;88.79
19600;BME280;9947;57.722;12.012;2022-10-29T06:44:45;100907.25;;;10.46;88.90
19600;BME280;9947;57.722;12.012;2022-10-29T06:47:12;100900.09;;;10.45;89.23
19600;BME280;9947;57.722;12.012;2022-10-29T06:49:39;100907.97;;;10.48;89.33
19600;BME280;9947;57.722;12.012;2022-10-29T06:52:07;100912.06;;;10.54;89.56
19600;BME280;9947;57.722;12.012;2022-10-29T06:54:34;100912.06;;;10.54;89.21
19600;BME280;9947;57.722;12.012;2022-10-29T06:57:01;100912.97;;;10.65;89.55
19600;BME280;9947;57.722;12.012;2022-10-29T06:59:27;100911.94;;;10.68;89.80
19600;BME280;9947;57.722;12.012;2022-10-29T07:01:54;100911.94;;;10.68;89.93
19600;BME280;9947;57.722;12.012;2022-10-29T07:04:21;100914.41;;;10.71;89.99
19600;BME280;9947;57.722;12.012;2022-10-29T07:06:50;100919.69;;;10.72;90.01
19600;BME280;9947;57.722;12.012;2022-10-29T07:09:18;100913.19;;;10.75;89.33
19600;BME280;9947;57.722;12.012;2022-10-29T07:11:47;100933.03;;;10.87;89.47
19600;BME280;9947;57.722;12.012;2022-10-29T07:14:14;100924.56;;;10.91;89.57
19600;BME280;9947;57.722;12.012;2022-10-29T07:16:41;100931.03;;;11.01;89.35
19600;BME280;9947;57.722;12.012;2022-10-29T07:19:07;100932.91;;;11.12;89.26
19600;BME280;9947;57.722;12.012;2022-10-29T07:21:34;100925.03;;;11.09;88.96
19600;BME280;9947;57.722;12.012;2022-10-29T07:24:01;100931.31;;;11.09;88.44
19600;BME280;9947;57.722;12.012;2022-10-29T07:26:29;100934.97;;;11.08;88.08
19600;BME280;9947;57.722;12.012;2022-10-29T07:28:56;100928.78;;;11.19;87.92
19600;BME280;9947;57.722;12.012;2022-10-29T07:31:23;100926.56;;;11.24;87.92
19600;BME280;9947;57.722;12.012;2022-10-29T07:33:50;100933.09;;;11.22;87.48
19600;BME280;9947;57.722;12.012;2022-10-29T07:36:17;100923.41;;;11.30;87.48
19600;BME280;9947;57.722;12.012;2022-10-29T07:38:43;100929.78;;;11.29;87.27
19600;BME280;9947;57.722;12.012;2022-10-29T07:41:10;100926.47;;;11.37;87.27
19600;BME280;9947;57.722;12.012;2022-10-29T07:43:39;100919.72;;;11.31;87.10
19600;BME280;9947;57.722;12.012;2022-10-29T07:46:06;100907.78;;;11.34;87.02
19600;BME280;9947;57.722;12.012;2022-10-29T07:48:33;100910.88;;;11.40;86.84
19600;BME280;9947;57.722;12.012;2022-10-29T07:51:00;100921.06;;;11.37;86.97
19600;BME280;9947;57.722;12.012;2022-10-29T07:53:27;100916.81;;;11.46;86.88
19600;BME280;9947;57.722;12.012;2022-10-29T07:55:58;100924.16;;;11.43;86.96
19600;BME280;9947;57.722;12.012;2022-10-29T07:58:25;100932.28;;;11.43;86.92
19600;BME280;9947;57.722;12.012;2022-10-29T08:00:53;100929.50;;;11.45;86.79
19600;BME280;9947;57.722;12.012;2022-10-29T08:03:20;100917.56;;;11.48;86.74
19600;BME280;9947;57.722;12.012;2022-10-29T08:05:47;100908.44;;;11.49;86.88
19600;BME280;9947;57.722;12.012;2022-10-29T08:08:14;100922.25;;;11.57;86.86
19600;BME280;9947;57.722;12.012;2022-10-29T08:10:42;100932.81;;;11.60;86.74
19600;BME280;9947;57.722;12.012;2022-10-29T08:13:09;100939.47;;;11.56;87.30
19600;BME280;9947;57.722;12.012;2022-10-29T08:15:35;100947.72;;;11.54;87.00
19600;BME280;9947;57.722;12.012;2022-10-29T08:18:10;100959.03;;;11.59;86.93
19600;BME280;9947;57.722;12.012;2022-10-29T08:20:39;100956.22;;;11.61;87.05
19600;BME280;9947;57.722;12.012;2022-10-29T08:23:07;100948.59;;;11.66;86.91
19600;BME280;9947;57.722;12.012;2022-10-29T08:25:34;100959.97;;;11.71;87.26
19600;BME280;9947;57.722;12.012;2022-10-29T08:28:06;100948.53;;;11.79;87.52
19600;BME280;9947;57.722;12.012;2022-10-29T08:30:33;100960.44;;;11.76;87.67
19600;BME280;9947;57.722;12.012;2022-10-29T08:33:00;100957.03;;;11.85;87.87
19600;BME280;9947;57.722;12.012;2022-10-29T08:35:29;100956.94;;;11.87;88.22
19600;BME280;9947;57.722;12.012;2022-10-29T08:37:56;100951.75;;;11.84;88.71
19600;BME280;9947;57.722;12.012;2022-10-29T08:40:28;100958.28;;;11.92;88.59
19600;BME280;9947;57.722;12.012;2022-10-29T08:43:28;100958.81;;;11.97;88.90
19600;BME280;9947;57.722;12.012;2022-10-29T08:45:58;100950.91;;;11.94;88.40
19600;BME280;9947;57.722;12.012;2022-10-29T08:48:35;100953.38;;;11.97;89.09
19600;BME280;9947;57.722;12.012;2022-10-29T08:51:09;100966.31;;;12.05;88.75
19600;BME280;9947;57.722;12.012;2022-10-29T08:53:43;100971.25;;;12.11;89.18
19600;BME280;9947;57.722;12.012;2022-10-29T08:56:14;100956.84;;;12.11;89.71
19600;BME280;9947;57.722;12.012;2022-10-29T08:58:46;100975.91;;;12.20;89.63
19600;BME280;9947;57.722;12.012;2022-10-29T09:01:20;100987.75;;;12.08;89.73
19600;BME280;9947;57.722;12.012;2022-10-29T09:03:48;100990.09;;;12.13;89.09
19600;BME280;9947;57.722;12.012;2022-10-29T09:06:22;100989.09;;;12.02;88.59
19600;BME280;9947;57.722;12.012;2022-10-29T09:09:24;100995.38;;;12.03;88.33
19600;BME280;9947;57.722;12.012;2022-10-29T09:12:06;100999.22;;;12.12;88.06
19600;BME280;9947;57.722;12.012;2022-10-29T09:15:02;100987.75;;;12.08;88.44
19600;BME280;9947;57.722;12.012;2022-10-29T09:17:36;100990.84;;;12.03;88.41
19600;BME280;9947;57.722;12.012;2022-10-29T09:20:19;100995.03;;;12.08;87.97
19600;BME280;9947;57.722;12.012;2022-10-29T09:22:55;100993.66;;;12.02;88.38
19600;BME280;9947;57.722;12.012;2022-10-29T09:25:42;101004.75;;;12.21;87.84
19600;BME280;9947;57.722;12.012;2022-10-29T09:28:22;101002.69;;;12.25;88.18
19600;BME280;9947;57.722;12.012;2022-10-29T09:30:57;100995.13;;;12.17;88.46
19600;BME280;9947;57.722;12.012;2022-10-29T09:33:28;100992.19;;;12.09;88.05
19600;BME280;9947;57.722;12.012;2022-10-29T09:35:56;101001.66;;;12.15;87.84
19600;BME280;9947;57.722;12.012;2022-10-29T09:38:29;100990.13;;;12.24;87.81
19600;BME280;9947;57.722;12.012;2022-10-29T09:40:58;100999.84;;;12.38;88.25
19600;BME280;9947;57.722;12.012;2022-10-29T09:43:37;100993.69;;;12.35;89.06
19600;BME280;9947;57.722;12.012;2022-10-29T09:46:12;100989.25;;;12.34;89.12
19600;BME280;9947;57.722;12.012;2022-10-29T09:48:48;100997.13;;;12.49;89.11
19600;BME280;9947;57.722;12.012;2022-10-29T09:51:26;100997.63;;;12.54;89.75
19600;BME280;9947;57.722;12.012;2022-10-29T09:54:01;100988.38;;;12.34;90.00
19600;BME280;9947;57.722;12.012;2022-10-29T09:56:28;100994.78;;;12.33;89.97
19600;BME280;9947;57.722;12.012;2022-10-29T09:59:03;100997.25;;;12.47;90.19
19600;BME280;9947;57.722;12.012;2022-10-29T10:01:32;100997.75;;;12.52;91.35
19600;BME280;9947;57.722;12.012;2022-10-29T10:04:05;100987.88;;;12.40;91.38
19600;BME280;9947;57.722;12.012;2022-10-29T10:07:02;100987.41;;;12.57;92.00
19600;BME280;9947;57.722;12.012;2022-10-29T10:09:56;101000.22;;;12.55;92.50
19600;BME280;9947;57.722;12.012;2022-10-29T10:12:25;101003.94;;;12.54;92.93
19600;BME280;9947;57.722;12.012;2022-10-29T10:15:04;101008.38;;;12.55;92.36
19600;BME280;9947;57.722;12.012;2022-10-29T10:17:52;101002.69;;;12.58;92.98
19600;BME280;9947;57.722;12.012;2022-10-29T10:20:32;100994.56;;;12.58;93.47
19600;BME280;9947;57.722;12.012;2022-10-29T10:23:00;101000.97;;;12.57;92.79
19600;BME280;9947;57.722;12.012;2022-10-29T10:25:36;101011.78;;;12.69;93.50
19600;BME280;9947;57.722;12.012;2022-10-29T10:28:19;101026.22;;;12.58;93.36
19600;BME280;9947;57.722;12.012;2022-10-29T10:31:05;101011.44;;;12.62;93.01
19600;BME280;9947;57.722;12.012;2022-10-29T10:33:43;101019.81;;;12.70;93.03
19600;BME280;9947;57.722;12.012;2022-10-29T10:36:11;101010.81;;;12.70;93.73
19600;BME280;9947;57.722;12.012;2022-10-29T10:38:41;101024.75;;;12.65;93.38
19600;BME280;9947;57.722;12.012;2022-10-29T10:41:22;101024.00;;;12.63;93.91
19600;BME280;9947;57.722;12.012;2022-10-29T10:43:50;101009.69;;;12.72;94.71
19600;BME280;9947;57.722;12.012;2022-10-29T10:46:21;101015.00;;;12.62;95.24
19600;BME280;9947;57.722;12.012;2022-10-29T10:48:57;101016.47;;;12.66;96.56
19600;BME280;9947;57.722;12.012;2022-10-29T10:51:27;101020.78;;;12.69;96.92
19600;BME280;9947;57.722;12.012;2022-10-29T10:53:55;101025.34;;;12.69;96.36
19600;BME280;9947;57.722;12.012;2022-10-29T10:56:24;101031.03;;;12.77;96.29
19600;BME280;9947;57.722;12.012;2022-10-29T10:58:56;101027.22;;;12.57;96.48
19600;BME280;9947;57.722;12.012;2022-10-29T11:01:30;101021.91;;;12.55;96.31
19600;BME280;9947;57.722;12.012;2022-10-29T11:04:04;101034.13;;;12.61;95.77
19600;BME280;9947;57.722;12.012;2022-10-29T11:06:36;101020.81;;;12.58;95.91
19600;BME280;9947;57.722;12.012;2022-10-29T11:09:10;101028.94;;;12.69;96.17
19600;BME280;9947;57.722;12.012;2022-10-29T11:11:43;101032.13;;;12.63;96.28
19600;BME280;9947;57.722;12.012;2022-10-29T11:14:13;101044.34;;;12.69;95.90
19600;BME280;9947;57.722;12.012;2022-10-29T11:16:45;101038.19;;;12.55;95.69
19600;BME280;9947;57.722;12.012;2022-10-29T11:19:20;101035.09;;;12.60;94.98
19600;BME280;9947;57.722;12.012;2022-10-29T11:21:59;101029.06;;;12.56;95.26
19600;BME280;9947;57.722;12.012;2022-10-29T11:24:34;101015.16;;;12.50;96.10
19600;BME280;9947;57.722;12.012;2022-10-29T11:27:20;101009.72;;;12.50;94.99
19600;BME280;9947;57.722;12.012;2022-10-29T11:29:54;101018.47;;;12.53;94.69
19600;BME280;9947;57.722;12.012;2022-10-29T11:32:31;101020.56;;;12.50;94.42
19600;BME280;9947;57.722;12.012;2022-10-29T11:35:03;101020.31;;;12.53;95.50
19600;BME280;9947;57.722;12.012;2022-10-29T11:37:36;101007.63;;;12.53;94.94
19600;BME280;9947;57.722;12.012;2022-10-29T11:40:11;101016.22;;;12.47;93.65
19600;BME280;9947;57.722;12.012;2022-10-29T11:42:40;101020.94;;;12.56;93.89
19600;BME280;9947;57.722;12.012;2022-10-29T11:45:11;101013.03;;;12.53;93.76
19600;BME280;9947;57.722;12.012;2022-10-29T11:48:03;101017.47;;;12.43;92.72
19600;BME280;9947;57.722;12.012;2022-10-29T11:50:41;101012.03;;;12.32;92.15
19600;BME280;9947;57.722;12.012;2022-10-29T11:53:22;101010.31;;;12.31;91.25
19600;BME280;9947;57.722;12.012;2022-10-29T11:55:59;101012.66;;;12.35;91.25
19600;BME280;9947;57.722;12.012;2022-10-29T11:58:41;101022.53;;;12.37;90.97
19600;BME280;9947;57.722;12.012;2022-10-29T12:01:30;101022.50;;;12.48;90.09
19600;BME280;9947;57.722;12.012;2022-10-29T12:04:20;101019.56;;;12.40;90.45
19600;BME280;9947;57.722;12.012;2022-10-29T12:07:03;101028.34;;;12.54;90.76
19600;BME280;9947;57.722;12.012;2022-10-29T12:10:01;101014.00;;;12.41;91.08
19600;BME280;9947;57.722;12.012;2022-10-29T12:12:42;101007.59;;;12.42;90.59
19600;BME280;9947;57.722;12.012;2022-10-29T12:15:20;101001.81;;;12.35;89.94
19600;BME280;9947;57.722;12.012;2022-10-29T12:17:54;101004.28;;;12.39;89.68
19600;BME280;9947;57.722;12.012;2022-10-29T12:20:31;101004.16;;;12.40;89.96
19600;BME280;9947;57.722;12.012;2022-10-29T12:23:13;101008.63;;;12.52;89.57
19600;BME280;9947;57.722;12.012;2022-10-29T12:25:56;101010.34;;;12.53;89.43
19600;BME280;9947;57.722;12.012;2022-10-29T12:28:35;100997.50;;;12.44;89.71
19600;BME280;9947;57.722;12.012;2022-10-29T12:31:19;101001.19;;;12.43;89.37
19600;BME280;9947;57.722;12.012;2022-10-29T12:33:55;101002.19;;;12.42;89.75
19600;BME280;9947;57.722;12.012;2022-10-29T12:36:31;100989.88;;;12.38;89.64
19600;BME280;9947;57.722;12.012;2022-10-29T12:38:59;100999.09;;;12.47;89.06
19600;BME280;9947;57.722;12.012;2022-10-29T12:41:34;100989.88;;;12.38;89.43
19600;BME280;9947;57.722;12.012;2022-10-29T12:44:12;100990.59;;;12.40;90.02
19600;BME280;9947;57.722;12.012;2022-10-29T12:46:47;100989.88;;;12.38;90.05
19600;BME280;9947;57.722;12.012;2022-10-29T12:49:34;100984.31;;;12.40;89.63
19600;BME280;9947;57.722;12.012;2022-10-29T12:52:10;100997.75;;;12.41;89.49
19600;BME280;9947;57.722;12.012;2022-10-29T12:54:41;100997.38;;;12.46;89.59
19600;BME280;9947;57.722;12.012;2022-10-29T12:57:26;100993.19;;;12.53;90.12
19600;BME280;9947;57.722;12.012;2022-10-29T12:59:58;100989.50;;;12.54;90.31
19600;BME280;9947;57.722;12.012;2022-10-29T13:02:47;100993.69;;;12.58;90.62
19600;BME280;9947;57.722;12.012;2022-10-29T13:05:37;100994.19;;;12.52;91.14
19600;BME280;9947;57.722;12.012;2022-10-29T13:08:27;100994.28;;;12.61;90.74
19600;BME280;9947;57.722;12.012;2022-10-29T13:10:58;100997.00;;;12.61;91.28
19600;BME280;9947;57.722;12.012;2022-10-29T13:13:36;100990.47;;;12.64;90.38
19600;BME280;9947;57.722;12.012;2022-10-29T13:16:14;100991.22;;;12.55;90.16